^^
Your Local Weather - Clay, NY Station Historical Data
Daily Summary for December 5, 2017 Units:  English    Metric   Both
« Previous Day
Next Day »
Daily Weekly Monthly Yearly Custom
  High: Low: Average:
Temperature: 53.7 °F 39.9 °F 49.6 °F
Dew Point: 47.5 °F 31.6 °F 41.3 °F
Humidity: 89% 58% 74%
Wind Speed: 12.0mph 1.0mph 6.8mph
Wind Gust: 20.0mph - -
Wind- - SSW
Pressure: 30.06 in 29.64 in -
Precipitation: 0.39 in    
Historical Graphs
 
 
Tabular Data for December 5, 2017
Time Temperature Dew Point Pressure Wind Wind Speed Wind Gust Humidity Rainfall Rate (Hourly) solar
00:02 47.5 °F 33.4 °F 30.06 in SE 10.0 mph 13.0 mph 58% 0.00 in 0 W/m2
00:08 47.5 °F 33.4 °F 30.05 in South 10.0 mph 14.0 mph 58% 0.00 in 0 W/m2
00:14 47.5 °F 33.9 °F 30.05 in SSE 11.0 mph 20.0 mph 59% 0.00 in 0 W/m2
00:20 47.5 °F 33.9 °F 30.05 in SE 10.0 mph 10.0 mph 59% 0.00 in 0 W/m2
00:26 47.6 °F 34.0 °F 30.05 in South 9.0 mph 13.0 mph 59% 0.00 in 0 W/m2
00:32 47.5 °F 34.3 °F 30.05 in SE 9.0 mph 10.0 mph 60% 0.00 in 0 W/m2
00:38 47.5 °F 34.7 °F 30.04 in South 10.0 mph 14.0 mph 61% 0.00 in 0 W/m2
00:44 47.4 °F 34.6 °F 30.04 in SW 9.0 mph 9.0 mph 61% 0.00 in 0 W/m2
00:50 47.4 °F 35.0 °F 30.03 in SE 7.0 mph 18.0 mph 62% 0.00 in 0 W/m2
00:56 47.6 °F 35.2 °F 30.04 in South 9.0 mph 18.0 mph 62% 0.00 in 0 W/m2
01:02 47.8 °F 35.4 °F 30.03 in SSE 10.0 mph 14.0 mph 62% 0.00 in 0 W/m2
01:08 47.8 °F 35.4 °F 30.03 in SSE 11.0 mph 14.0 mph 62% 0.00 in 0 W/m2
01:14 48.0 °F 35.6 °F 30.03 in SSE 11.0 mph 12.0 mph 62% 0.00 in 0 W/m2
01:20 48.0 °F 35.6 °F 30.03 in South 10.0 mph 14.0 mph 62% 0.00 in 0 W/m2
01:26 48.1 °F 35.7 °F 30.02 in South 12.0 mph 17.0 mph 62% 0.00 in 0 W/m2
01:32 48.1 °F 35.7 °F 30.03 in South 11.0 mph 14.0 mph 62% 0.00 in 0 W/m2
01:38 48.1 °F 36.1 °F 30.02 in SSE 11.0 mph 15.0 mph 63% 0.00 in 0 W/m2
01:44 48.0 °F 36.0 °F 30.01 in South 10.0 mph 10.0 mph 63% 0.00 in 0 W/m2
01:50 48.1 °F 36.1 °F 30.01 in South 9.0 mph 13.0 mph 63% 0.00 in 0 W/m2
01:56 48.1 °F 36.1 °F 30.01 in SE 10.0 mph 13.0 mph 63% 0.00 in 0 W/m2
02:02 48.2 °F 35.8 °F 30.00 in SSE 9.0 mph 10.0 mph 62% 0.00 in 0 W/m2
02:08 48.2 °F 35.8 °F 30.01 in SSE 8.0 mph 13.0 mph 62% 0.00 in 0 W/m2
02:14 48.3 °F 35.9 °F 30.01 in SSE 8.0 mph 11.0 mph 62% 0.00 in 0 W/m2
02:20 48.4 °F 36.0 °F 30.01 in SSE 7.0 mph 7.0 mph 62% 0.00 in 0 W/m2
02:26 48.7 °F 35.8 °F 30.00 in SSE 9.0 mph 9.0 mph 61% 0.00 in 0 W/m2
02:32 48.8 °F 35.9 °F 30.00 in SSE 9.0 mph 11.0 mph 61% 0.00 in 0 W/m2
02:39 48.8 °F 35.9 °F 30.00 in South 9.0 mph 11.0 mph 61% 0.00 in 0 W/m2
02:44 48.7 °F 35.8 °F 30.01 in South 8.0 mph 13.0 mph 61% 0.00 in 0 W/m2
02:50 48.7 °F 35.8 °F 30.00 in SSE 8.0 mph 10.0 mph 61% 0.00 in 0 W/m2
02:56 48.7 °F 35.8 °F 30.00 in SSE 8.0 mph 15.0 mph 61% 0.00 in 0 W/m2
03:02 48.7 °F 36.3 °F 30.00 in SSE 9.0 mph 13.0 mph 62% 0.00 in 0 W/m2
03:08 48.7 °F 36.3 °F 30.00 in SSE 9.0 mph 13.0 mph 62% 0.00 in 0 W/m2
03:14 48.6 °F 36.2 °F 30.00 in SSE 9.0 mph 14.0 mph 62% 0.00 in 0 W/m2
03:20 48.7 °F 35.8 °F 30.00 in South 9.0 mph 12.0 mph 61% 0.00 in 0 W/m2
03:26 48.7 °F 35.8 °F 30.00 in SSE 10.0 mph 12.0 mph 61% 0.00 in 0 W/m2
03:32 48.8 °F 35.9 °F 29.99 in SSW 10.0 mph 10.0 mph 61% 0.00 in 0 W/m2
03:38 48.6 °F 35.7 °F 30.00 in South 9.0 mph 12.0 mph 61% 0.00 in 0 W/m2
03:44 48.7 °F 35.8 °F 30.00 in SSE 9.0 mph 16.0 mph 61% 0.00 in 0 W/m2
03:50 48.6 °F 35.7 °F 29.99 in SSW 9.0 mph 12.0 mph 61% 0.00 in 0 W/m2
03:56 48.5 °F 35.7 °F 29.98 in SSE 8.0 mph 12.0 mph 61% 0.00 in 0 W/m2
04:02 48.7 °F 35.8 °F 29.99 in SSW 10.0 mph 13.0 mph 61% 0.00 in 0 W/m2
04:08 48.8 °F 35.9 °F 29.99 in South 10.0 mph 13.0 mph 61% 0.00 in 0 W/m2
04:14 48.9 °F 36.0 °F 30.00 in SSE 10.0 mph 13.0 mph 61% 0.00 in 0 W/m2
04:20 48.9 °F 36.0 °F 30.00 in SSE 9.0 mph 9.0 mph 61% 0.00 in 0 W/m2
04:26 48.9 °F 36.0 °F 30.00 in SE 10.0 mph 14.0 mph 61% 0.00 in 0 W/m2
04:32 48.9 °F 36.4 °F 30.00 in SSE 10.0 mph 11.0 mph 62% 0.00 in 0 W/m2
04:38 48.8 °F 36.4 °F 30.00 in South 9.0 mph 19.0 mph 62% 0.00 in 0 W/m2
04:44 48.7 °F 36.7 °F 29.99 in SSE 7.0 mph 10.0 mph 63% 0.00 in 0 W/m2
04:50 48.8 °F 36.8 °F 29.98 in West 7.0 mph 7.0 mph 63% 0.00 in 0 W/m2
04:56 48.9 °F 36.9 °F 29.98 in South 7.0 mph 16.0 mph 63% 0.00 in 0 W/m2
05:02 49.0 °F 36.9 °F 29.98 in South 9.0 mph 11.0 mph 63% 0.00 in 0 W/m2
05:08 49.3 °F 36.8 °F 29.98 in SE 10.0 mph 13.0 mph 62% 0.00 in 0 W/m2
05:14 49.2 °F 36.7 °F 29.98 in SE 10.0 mph 12.0 mph 62% 0.00 in 0 W/m2
05:20 49.2 °F 37.1 °F 29.98 in South 8.0 mph 8.0 mph 63% 0.00 in 0 W/m2
05:26 49.1 °F 37.0 °F 29.97 in South 7.0 mph 8.0 mph 63% 0.00 in 0 W/m2
05:32 49.2 °F 37.1 °F 29.97 in SSE 7.0 mph 16.0 mph 63% 0.00 in 0 W/m2
05:38 49.4 °F 37.3 °F 29.96 in SE 8.0 mph 16.0 mph 63% 0.00 in 0 W/m2
05:44 49.4 °F 37.3 °F 29.95 in SSW 8.0 mph 9.0 mph 63% 0.00 in 0 W/m2
05:50 49.4 °F 37.3 °F 29.95 in SE 9.0 mph 11.0 mph 63% 0.00 in 0 W/m2
05:56 49.4 °F 37.3 °F 29.95 in South 8.0 mph 11.0 mph 63% 0.00 in 0 W/m2
06:02 49.8 °F 37.7 °F 29.93 in SSW 10.0 mph 10.0 mph 63% 0.00 in 0 W/m2
06:08 49.7 °F 37.6 °F 29.93 in South 10.0 mph 10.0 mph 63% 0.00 in 0 W/m2
06:14 49.8 °F 37.7 °F 29.93 in SE 8.0 mph 14.0 mph 63% 0.00 in 0 W/m2
06:20 49.9 °F 38.2 °F 29.92 in ESE 9.0 mph 9.0 mph 64% 0.00 in 0 W/m2
06:26 49.9 °F 37.8 °F 29.92 in South 9.0 mph 10.0 mph 63% 0.00 in 0 W/m2
06:32 50.3 °F 38.2 °F 29.92 in South 12.0 mph 12.0 mph 63% 0.00 in 0 W/m2
06:38 50.1 °F 38.4 °F 29.90 in South 11.0 mph 16.0 mph 64% 0.00 in 0 W/m2
06:44 49.9 °F 38.6 °F 29.91 in SSW 10.0 mph 11.0 mph 65% 0.00 in 0 W/m2
06:50 49.9 °F 39.0 °F 29.90 in SSE 8.0 mph 8.0 mph 66% 0.00 in 0 W/m2
06:56 49.6 °F 39.5 °F 29.90 in SSW 9.0 mph 10.0 mph 68% 0.00 in 0 W/m2
07:02 49.4 °F 39.7 °F 29.90 in South 8.0 mph 8.0 mph 69% 0.00 in 0 W/m2
07:08 49.6 °F 39.8 °F 29.90 in South 7.0 mph 15.0 mph 69% 0.00 in 0 W/m2
07:14 49.7 °F 39.9 °F 29.90 in SSE 9.0 mph 14.0 mph 69% 0.00 in 0 W/m2
07:20 49.6 °F 39.8 °F 29.90 in SE 9.0 mph 9.0 mph 69% 0.00 in 0 W/m2
07:26 49.4 °F 40.0 °F 29.89 in South 8.0 mph 11.0 mph 70% 0.00 in 0 W/m2
07:32 49.2 °F 40.2 °F 29.89 in SSW 6.0 mph 6.0 mph 71% 0.00 in 0 W/m2
07:38 49.8 °F 40.0 °F 29.90 in SSE 7.0 mph 15.0 mph 69% 0.00 in 0 W/m2
07:44 50.0 °F 40.2 °F 29.90 in WSW 8.0 mph 8.0 mph 69% 0.00 in 0 W/m2
07:50 50.0 °F 40.2 °F 29.90 in SW 7.0 mph 8.0 mph 69% 0.00 in 0 W/m2
07:56 49.8 °F 40.0 °F 29.90 in SSE 5.0 mph 6.0 mph 69% 0.00 in 0 W/m2
08:02 50.2 °F 40.0 °F 29.90 in SSE 6.0 mph 8.0 mph 68% 0.00 in 7 W/m2
08:08 50.2 °F 40.0 °F 29.90 in South 6.0 mph 8.0 mph 68% 0.00 in 12 W/m2
08:20 50.5 °F 40.3 °F 29.92 in SW 6.0 mph 8.0 mph 68% 0.00 in 7 W/m2
08:28 50.2 °F 40.4 °F 29.92 in SW 4.0 mph 8.0 mph 69% 0.00 in 11 W/m2
08:34 49.9 °F 40.9 °F 29.92 in South 4.0 mph 7.0 mph 71% 0.06 in 7 W/m2
08:40 49.5 °F 40.8 °F 29.92 in South 4.0 mph 4.0 mph 72% 0.06 in 9 W/m2
08:46 49.2 °F 41.3 °F 29.92 in SSW 5.0 mph 9.0 mph 74% 0.06 in 7 W/m2
08:52 49.2 °F 41.6 °F 29.92 in SE 6.0 mph 10.0 mph 75% 0.06 in 9 W/m2
08:58 49.0 °F 41.8 °F 29.92 in SSE 7.0 mph 10.0 mph 76% 0.26 in 9 W/m2
09:04 48.4 °F 42.2 °F 29.91 in SSW 8.0 mph 10.0 mph 79% 0.32 in 16 W/m2
09:10 47.9 °F 42.3 °F 29.91 in South 7.0 mph 12.0 mph 81% 0.17 in 14 W/m2
09:16 47.8 °F 42.6 °F 29.91 in South 7.0 mph 12.0 mph 82% 0.09 in 18 W/m2
09:22 47.7 °F 42.5 °F 29.91 in SSE 6.0 mph 6.0 mph 82% 0.09 in 16 W/m2
09:28 48.1 °F 42.9 °F 29.91 in SSE 7.0 mph 8.0 mph 82% 0.05 in 16 W/m2
09:34 48.2 °F 42.6 °F 29.90 in South 8.0 mph 8.0 mph 81% 0.05 in 19 W/m2
09:40 48.2 °F 43.0 °F 29.90 in SSE 8.0 mph 9.0 mph 82% 0.06 in 25 W/m2
09:46 48.2 °F 43.0 °F 29.90 in SSE 7.0 mph 10.0 mph 82% 0.07 in 28 W/m2
09:52 48.3 °F 43.1 °F 29.90 in SSW 8.0 mph 8.0 mph 82% 0.07 in 35 W/m2
09:58 48.3 °F 43.4 °F 29.89 in South 7.0 mph 9.0 mph 83% 0.05 in 37 W/m2
10:04 48.4 °F 43.5 °F 29.89 in SW 7.0 mph 8.0 mph 83% 0.00 in 26 W/m2
10:10 48.7 °F 43.5 °F 29.89 in SSW 7.0 mph 7.0 mph 82% 0.00 in 33 W/m2
10:16 48.9 °F 43.6 °F 29.88 in SSW 7.0 mph 8.0 mph 82% 0.00 in 35 W/m2
10:22 49.2 °F 43.6 °F 29.88 in SW 6.0 mph 6.0 mph 81% 0.00 in 32 W/m2
10:28 49.7 °F 43.8 °F 29.88 in South 6.0 mph 11.0 mph 80% 0.00 in 32 W/m2
10:34 50.3 °F 43.7 °F 29.88 in SW 7.0 mph 13.0 mph 78% 0.00 in 42 W/m2
10:40 50.4 °F 43.8 °F 29.88 in SSE 7.0 mph 7.0 mph 78% 0.00 in 35 W/m2
10:42 50.5 °F 43.6 °F 29.88 in SW 7.0 mph 11.0 mph 77% 0.00 in 35 W/m2
10:48 50.8 °F 43.8 °F 29.88 in South 8.0 mph 11.0 mph 77% 0.00 in 32 W/m2
10:54 51.0 °F 43.7 °F 29.87 in SSW 7.0 mph 9.0 mph 76% 0.00 in 28 W/m2
11:00 51.1 °F 43.8 °F 29.87 in SW 7.0 mph 10.0 mph 76% 0.00 in 30 W/m2
11:06 51.4 °F 43.7 °F 29.87 in South 9.0 mph 10.0 mph 75% 0.00 in 42 W/m2
11:12 51.5 °F 44.2 °F 29.87 in SSW 10.0 mph 13.0 mph 76% 0.00 in 46 W/m2
11:18 51.1 °F 44.1 °F 29.87 in South 9.0 mph 13.0 mph 77% 0.00 in 46 W/m2
11:24 50.9 °F 44.3 °F 29.86 in SE 9.0 mph 14.0 mph 78% 0.00 in 39 W/m2
11:30 50.9 °F 44.6 °F 29.86 in South 9.0 mph 9.0 mph 79% 0.04 in 46 W/m2
11:36 50.7 °F 44.8 °F 29.85 in SSW 8.0 mph 10.0 mph 80% 0.04 in 47 W/m2
11:42 50.7 °F 44.8 °F 29.85 in SW 7.0 mph 9.0 mph 80% 0.00 in 47 W/m2
11:48 50.6 °F 45.0 °F 29.84 in South 8.0 mph 9.0 mph 81% 0.00 in 49 W/m2
11:54 50.6 °F 45.0 °F 29.81 in SSE 7.0 mph 12.0 mph 81% 0.00 in 46 W/m2
12:00 50.8 °F 44.9 °F 29.82 in South 8.0 mph 8.0 mph 80% 0.00 in 46 W/m2
12:06 51.1 °F 44.8 °F 29.81 in South 8.0 mph 9.0 mph 79% 0.00 in 44 W/m2
12:12 51.3 °F 45.0 °F 29.80 in SSE 8.0 mph 12.0 mph 79% 0.00 in 49 W/m2
12:18 51.2 °F 44.9 °F 29.79 in SSE 9.0 mph 12.0 mph 79% 0.00 in 49 W/m2
12:24 51.2 °F 44.9 °F 29.77 in South 9.0 mph 11.0 mph 79% 0.00 in 58 W/m2
12:30 51.5 °F 44.9 °F 29.76 in South 10.0 mph 10.0 mph 78% 0.00 in 46 W/m2
12:36 51.7 °F 45.1 °F 29.76 in SSE 11.0 mph 14.0 mph 78% 0.00 in 39 W/m2
12:42 51.9 °F 44.9 °F 29.76 in SSE 9.0 mph 10.0 mph 77% 0.00 in 33 W/m2
12:48 51.7 °F 45.1 °F 29.74 in SSE 9.0 mph 16.0 mph 78% 0.00 in 35 W/m2
12:54 51.6 °F 45.0 °F 29.73 in South 11.0 mph 19.0 mph 78% 0.00 in 26 W/m2
13:00 51.9 °F 45.3 °F 29.74 in SE 12.0 mph 12.0 mph 78% 0.00 in 32 W/m2
13:06 51.8 °F 45.2 °F 29.73 in SSW 12.0 mph 19.0 mph 78% 0.00 in 30 W/m2
13:12 51.9 °F 45.3 °F 29.71 in South 12.0 mph 18.0 mph 78% 0.00 in 25 W/m2
13:18 52.1 °F 45.1 °F 29.74 in South 11.0 mph 18.0 mph 77% 0.00 in 25 W/m2
13:24 52.2 °F 45.2 °F 29.74 in South 9.0 mph 14.0 mph 77% 0.00 in 26 W/m2
13:30 52.3 °F 45.3 °F 29.72 in SSE 9.0 mph 9.0 mph 77% 0.00 in 30 W/m2
13:36 52.3 °F 45.3 °F 29.68 in SE 12.0 mph 17.0 mph 77% 0.00 in 28 W/m2
13:42 52.5 °F 45.5 °F 29.69 in South 12.0 mph 15.0 mph 77% 0.00 in 30 W/m2
13:48 52.7 °F 45.7 °F 29.71 in SSE 11.0 mph 16.0 mph 77% 0.00 in 30 W/m2
13:54 52.8 °F 45.4 °F 29.76 in WSW 8.0 mph 10.0 mph 76% 0.00 in 32 W/m2
14:00 52.7 °F 45.7 °F 29.77 in West 5.0 mph 5.0 mph 77% 0.00 in 19 W/m2
14:06 52.8 °F 45.4 °F 29.77 in WSW 4.0 mph 8.0 mph 76% 0.00 in 28 W/m2
14:12 52.8 °F 45.4 °F 29.77 in SW 3.0 mph 7.0 mph 76% 0.00 in 28 W/m2
14:18 52.9 °F 45.5 °F 29.77 in SW 3.0 mph 7.0 mph 76% 0.00 in 28 W/m2
14:24 53.0 °F 45.6 °F 29.76 in SW 4.0 mph 6.0 mph 76% 0.00 in 23 W/m2
14:30 53.0 °F 45.6 °F 29.76 in South 4.0 mph 4.0 mph 76% 0.00 in 19 W/m2
14:36 52.9 °F 45.5 °F 29.74 in South 4.0 mph 6.0 mph 76% 0.00 in 19 W/m2
14:42 52.8 °F 45.4 °F 29.74 in SSW 4.0 mph 7.0 mph 76% 0.00 in 21 W/m2
14:48 52.8 °F 45.4 °F 29.74 in South 5.0 mph 9.0 mph 76% 0.00 in 23 W/m2
14:54 52.8 °F 45.4 °F 29.74 in SSW 4.0 mph 5.0 mph 76% 0.00 in 23 W/m2
15:00 52.8 °F 45.4 °F 29.74 in South 5.0 mph 5.0 mph 76% 0.00 in 18 W/m2
15:06 52.8 °F 45.4 °F 29.74 in SSE 4.0 mph 6.0 mph 76% 0.00 in 19 W/m2
15:18 52.7 °F 45.3 °F 29.74 in WSW 3.0 mph 6.0 mph 76% 0.00 in 14 W/m2
15:24 52.7 °F 45.3 °F 29.74 in SSW 3.0 mph 7.0 mph 76% 0.00 in 14 W/m2
15:30 52.7 °F 45.7 °F 29.74 in SSW 2.0 mph 2.0 mph 77% 0.00 in 9 W/m2
15:36 52.8 °F 45.4 °F 29.75 in South 2.0 mph 4.0 mph 76% 0.00 in 7 W/m2
15:42 52.7 °F 45.3 °F 29.74 in South 2.0 mph 3.0 mph 76% 0.00 in 7 W/m2
15:48 52.8 °F 45.4 °F 29.74 in SSW 3.0 mph 6.0 mph 76% 0.00 in 7 W/m2
15:54 52.7 °F 45.3 °F 29.74 in SSE 2.0 mph 3.0 mph 76% 0.00 in 5 W/m2
16:00 52.8 °F 45.4 °F 29.74 in South 2.0 mph 2.0 mph 76% 0.00 in 0 W/m2
16:06 52.8 °F 45.4 °F 29.74 in SSE 3.0 mph 5.0 mph 76% 0.00 in 0 W/m2
16:12 52.9 °F 45.9 °F 29.74 in SSE 4.0 mph 5.0 mph 77% 0.00 in 0 W/m2
16:18 53.0 °F 45.6 °F 29.74 in South 5.0 mph 8.0 mph 76% 0.00 in 0 W/m2
16:24 53.0 °F 45.6 °F 29.73 in South 5.0 mph 7.0 mph 76% 0.00 in 0 W/m2
16:30 53.0 °F 45.6 °F 29.73 in South 5.0 mph 5.0 mph 76% 0.00 in 0 W/m2
16:36 53.0 °F 45.6 °F 29.73 in SE 5.0 mph 5.0 mph 76% 0.00 in 0 W/m2
16:42 52.9 °F 45.9 °F 29.73 in South 5.0 mph 10.0 mph 77% 0.00 in 0 W/m2
16:48 53.0 °F 46.0 °F 29.72 in SSE 5.0 mph 10.0 mph 77% 0.00 in 0 W/m2
16:54 52.9 °F 45.9 °F 29.71 in SSE 5.0 mph 5.0 mph 77% 0.00 in 0 W/m2
17:00 53.1 °F 45.7 °F 29.71 in South 6.0 mph 6.0 mph 76% 0.00 in 0 W/m2
17:06 53.0 °F 46.0 °F 29.71 in SE 5.0 mph 8.0 mph 77% 0.00 in 0 W/m2
17:12 53.1 °F 46.1 °F 29.71 in South 5.0 mph 7.0 mph 77% 0.00 in 0 W/m2
17:18 53.2 °F 45.8 °F 29.71 in South 6.0 mph 7.0 mph 76% 0.00 in 0 W/m2
17:24 53.3 °F 45.9 °F 29.70 in SSE 7.0 mph 9.0 mph 76% 0.00 in 0 W/m2
17:30 53.3 °F 45.9 °F 29.70 in SSE 6.0 mph 6.0 mph 76% 0.00 in 0 W/m2
17:36 53.2 °F 45.8 °F 29.69 in South 5.0 mph 6.0 mph 76% 0.00 in 0 W/m2
17:42 53.3 °F 45.9 °F 29.69 in SSE 6.0 mph 10.0 mph 76% 0.00 in 0 W/m2
17:48 53.4 °F 46.0 °F 29.69 in SSE 6.0 mph 10.0 mph 76% 0.00 in 0 W/m2
17:54 53.4 °F 46.0 °F 29.69 in South 5.0 mph 5.0 mph 76% 0.00 in 0 W/m2
18:00 53.4 °F 46.0 °F 29.69 in SSE 4.0 mph 8.0 mph 76% 0.00 in 0 W/m2
18:06 53.4 °F 46.0 °F 29.69 in SE 4.0 mph 8.0 mph 76% 0.00 in 0 W/m2
18:12 53.4 °F 46.0 °F 29.69 in SSE 4.0 mph 5.0 mph 76% 0.00 in 0 W/m2
18:18 53.5 °F 46.1 °F 29.69 in South 4.0 mph 5.0 mph 76% 0.00 in 0 W/m2
18:24 53.5 °F 45.8 °F 29.69 in SSW 4.0 mph 7.0 mph 75% 0.00 in 0 W/m2
18:30 53.6 °F 45.9 °F 29.68 in SSW 4.0 mph 4.0 mph 75% 0.00 in 0 W/m2
18:36 53.6 °F 45.9 °F 29.68 in SSW 4.0 mph 5.0 mph 75% 0.00 in 0 W/m2
18:42 53.7 °F 46.0 °F 29.68 in South 4.0 mph 6.0 mph 75% 0.00 in 0 W/m2
18:48 53.5 °F 45.8 °F 29.67 in South 4.0 mph 7.0 mph 75% 0.00 in 0 W/m2
18:54 53.5 °F 45.8 °F 29.67 in SSE 3.0 mph 4.0 mph 75% 0.00 in 0 W/m2
19:00 53.5 °F 46.1 °F 29.66 in South 3.0 mph 3.0 mph 76% 0.00 in 0 W/m2
19:06 53.2 °F 46.2 °F 29.66 in South 3.0 mph 5.0 mph 77% 0.00 in 0 W/m2
19:12 53.0 °F 46.0 °F 29.66 in SSW 3.0 mph 4.0 mph 77% 0.00 in 0 W/m2
19:18 53.1 °F 46.1 °F 29.66 in SSW 4.0 mph 5.0 mph 77% 0.00 in 0 W/m2
19:24 53.2 °F 46.2 °F 29.66 in SSE 4.0 mph 5.0 mph 77% 0.00 in 0 W/m2
19:30 53.3 °F 46.3 °F 29.65 in SSW 5.0 mph 5.0 mph 77% 0.00 in 0 W/m2
19:36 53.4 °F 46.4 °F 29.65 in SW 6.0 mph 6.0 mph 77% 0.00 in 0 W/m2
19:42 53.3 °F 46.6 °F 29.66 in SSW 7.0 mph 8.0 mph 78% 0.00 in 0 W/m2
19:48 53.0 °F 46.7 °F 29.66 in SSE 8.0 mph 8.0 mph 79% 0.00 in 0 W/m2
19:54 52.8 °F 46.8 °F 29.66 in SSW 7.0 mph 7.0 mph 80% 0.00 in 0 W/m2
20:00 52.6 °F 46.9 °F 29.66 in South 6.0 mph 7.0 mph 81% 0.00 in 0 W/m2
20:06 52.4 °F 47.1 °F 29.66 in SW 6.0 mph 11.0 mph 82% 0.00 in 0 W/m2
20:12 52.2 °F 47.2 °F 29.66 in South 6.0 mph 6.0 mph 83% 0.07 in 0 W/m2
20:24 51.8 °F 47.1 °F 29.65 in SSW 5.0 mph 7.0 mph 84% 0.04 in 0 W/m2
20:30 51.6 °F 47.2 °F 29.65 in South 6.0 mph 6.0 mph 85% 0.04 in 0 W/m2
20:36 51.5 °F 47.1 °F 29.64 in South 6.0 mph 6.0 mph 85% 0.04 in 0 W/m2
20:42 51.6 °F 47.5 °F 29.65 in South 7.0 mph 8.0 mph 86% 0.05 in 0 W/m2
20:48 51.6 °F 47.5 °F 29.64 in South 6.0 mph 11.0 mph 86% 0.05 in 0 W/m2
20:54 51.8 °F 47.4 °F 29.65 in SW 8.0 mph 15.0 mph 85% 0.00 in 0 W/m2
21:00 50.9 °F 46.6 °F 29.67 in WNW 7.0 mph 7.0 mph 85% 0.66 in 0 W/m2
21:06 47.7 °F 43.1 °F 29.66 in West 7.0 mph 9.0 mph 84% 0.55 in 0 W/m2
21:12 44.9 °F 40.4 °F 29.69 in WNW 8.0 mph 9.0 mph 84% 0.13 in 0 W/m2
21:18 43.9 °F 40.0 °F 29.69 in WNW 7.0 mph 9.0 mph 86% 0.18 in 0 W/m2
21:24 43.4 °F 39.5 °F 29.69 in WNW 6.0 mph 8.0 mph 86% 0.12 in 0 W/m2
21:30 42.9 °F 39.3 °F 29.70 in WNW 7.0 mph 7.0 mph 87% 0.09 in 0 W/m2
21:36 42.7 °F 39.1 °F 29.70 in NW 6.0 mph 7.0 mph 87% 0.08 in 0 W/m2
21:42 42.5 °F 38.9 °F 29.70 in West 5.0 mph 5.0 mph 87% 0.08 in 0 W/m2
21:48 42.3 °F 39.0 °F 29.70 in WNW 3.0 mph 5.0 mph 88% 0.06 in 0 W/m2
21:54 42.3 °F 39.0 °F 29.71 in NW 3.0 mph 3.0 mph 88% 0.08 in 0 W/m2
22:00 42.1 °F 38.8 °F 29.71 in West 3.0 mph 5.0 mph 88% 0.07 in 0 W/m2
22:06 42.1 °F 39.1 °F 29.71 in WNW 2.0 mph 5.0 mph 89% 0.04 in 0 W/m2
22:12 42.0 °F 39.0 °F 29.71 in WNW 2.0 mph 3.0 mph 89% 0.00 in 0 W/m2
22:18 42.0 °F 39.0 °F 29.73 in WNW 1.0 mph 3.0 mph 89% 0.00 in 0 W/m2
22:24 42.0 °F 39.0 °F 29.73 in WSW 1.0 mph 4.0 mph 89% 0.00 in 0 W/m2
22:30 42.0 °F 39.0 °F 29.73 in WSW 2.0 mph 2.0 mph 89% 0.00 in 0 W/m2
22:38 42.0 °F 39.0 °F 29.73 in WNW 3.0 mph 5.0 mph 89% 0.00 in 0 W/m2
22:44 42.0 °F 39.0 °F 29.73 in WNW 3.0 mph 6.0 mph 89% 0.00 in 0 W/m2
22:50 42.0 °F 38.7 °F 29.73 in WNW 2.0 mph 3.0 mph 88% 0.00 in 0 W/m2
22:56 41.9 °F 38.6 °F 29.74 in WSW 2.0 mph 3.0 mph 88% 0.00 in 0 W/m2
23:02 41.7 °F 37.5 °F 29.74 in West 3.0 mph 3.0 mph 85% 0.00 in 0 W/m2
23:08 41.5 °F 36.7 °F 29.75 in WNW 3.0 mph 5.0 mph 83% 0.00 in 0 W/m2
23:14 41.3 °F 35.9 °F 29.75 in West 3.0 mph 4.0 mph 81% 0.00 in 0 W/m2
23:20 41.0 °F 35.6 °F 29.76 in SW 2.0 mph 6.0 mph 81% 0.00 in 0 W/m2
23:26 41.0 °F 35.0 °F 29.76 in WSW 4.0 mph 7.0 mph 79% 0.00 in 0 W/m2
23:32 40.8 °F 34.5 °F 29.77 in West 4.0 mph 5.0 mph 78% 0.00 in 0 W/m2
23:38 40.7 °F 33.4 °F 29.77 in WNW 4.0 mph 10.0 mph 75% 0.00 in 0 W/m2
23:44 40.6 °F 33.3 °F 29.77 in West 5.0 mph 6.0 mph 75% 0.00 in 0 W/m2
23:50 40.2 °F 32.2 °F 29.78 in West 5.0 mph 5.0 mph 73% 0.00 in 0 W/m2
23:56 39.9 °F 31.6 °F 29.78 in WNW 5.0 mph 6.0 mph 72% 0.00 in 0 W/m2
Country Meadow, Clay, NY, USA
Compliments of Weather Underground - 2 mb